Time;durP1;ratioP1;P1;durP2;ratioP2;P2;SDS_P1;SDS_P2;PMS_P1;PMS_P2;Temp;Humidity;BMP_temperature;BMP_pressure;BME280_temperature;BME280_humidity;BME280_pressure;Samples;Min_cycle;Max_cycle;Signal;HPM_P1;HPM_P2
2022/11/10 00:00:30;;;;;;;23.98;17.15;;;230.90;2252.80;;;;;;5154168;27;20052;-60
2022/11/10 00:03:03;;;;;;;32.90;21.90;;;230.80;2252.80;;;;;;5154223;27;20102;-60
2022/11/10 00:05:30;;;;;;;39.53;26.15;;;230.70;2252.80;;;;;;5153923;27;20023;-57
2022/11/10 00:07:56;;;;;;;65.03;41.42;;;230.80;2252.80;;;;;;5153867;27;20061;-56
2022/11/10 00:10:22;;;;;;;69.82;45.97;;;230.70;2252.80;;;;;;5153933;27;20046;-60
2022/11/10 00:12:47;;;;;;;77.32;48.05;;;230.70;2252.80;;;;;;5154144;27;20050;-57
2022/11/10 00:18:00;;;;;;;47.25;33.10;;;230.80;2252.80;;;;;;5154040;27;20107;-60
2022/11/10 00:20:26;;;;;;;42.20;26.48;;;230.70;2252.80;;;;;;5153875;27;20079;-60
2022/11/10 00:22:54;;;;;;;49.60;32.83;;;230.70;2252.80;;;;;;5153903;27;20026;-60
2022/11/10 00:25:20;;;;;;;40.38;27.27;;;230.70;2252.80;;;;;;5153941;27;20095;-60
2022/11/10 00:27:46;;;;;;;55.38;34.97;;;230.70;2252.80;;;;;;5153895;27;20822;-64
2022/11/10 00:30:12;;;;;;;81.65;50.08;;;230.70;2252.80;;;;;;5153597;27;20449;-68
2022/11/10 00:32:37;;;;;;;39.85;24.73;;;230.70;2252.80;;;;;;5153736;27;20018;-57
2022/11/10 00:35:03;;;;;;;29.52;20.25;;;230.70;2252.80;;;;;;5153519;27;20022;-59
2022/11/10 00:37:29;;;;;;;38.10;22.42;;;230.70;2252.80;;;;;;5152727;27;20069;-59
2022/11/10 00:39:55;;;;;;;97.97;56.03;;;230.70;2252.80;;;;;;5152706;27;20062;-59
2022/11/10 00:42:20;;;;;;;108.45;65.13;;;230.70;2252.80;;;;;;5153167;27;20047;-59
2022/11/10 00:44:46;;;;;;;79.85;48.85;;;230.70;2252.80;;;;;;5153496;27;20074;-60
2022/11/10 00:47:12;;;;;;;42.70;29.13;;;230.70;2252.80;;;;;;5153195;27;20372;-60
2022/11/10 00:49:38;;;;;;;47.42;30.10;;;230.70;2252.80;;;;;;5153181;27;20031;-59
2022/11/10 00:52:03;;;;;;;54.30;30.05;;;230.60;2252.80;;;;;;5153352;27;20371;-60
2022/11/10 00:54:29;;;;;;;85.13;40.03;;;230.60;2252.80;;;;;;5153146;27;20060;-60
2022/11/10 00:56:55;;;;;;;51.67;31.25;;;230.60;2252.80;;;;;;5153254;27;20019;-60
2022/11/10 00:59:20;;;;;;;47.30;32.05;;;230.60;2252.80;;;;;;5152960;27;20118;-61
2022/11/10 01:01:46;;;;;;;43.97;26.83;;;230.60;2252.80;;;;;;5153334;27;20456;-60
2022/11/10 01:04:12;;;;;;;39.22;25.08;;;230.60;2252.80;;;;;;5152797;27;20022;-60
2022/11/10 01:06:38;;;;;;;36.88;23.63;;;230.60;2252.80;;;;;;5153089;27;20476;-60
2022/11/10 01:09:03;;;;;;;50.78;32.35;;;230.60;2252.80;;;;;;5152504;27;20103;-61
2022/11/10 01:11:29;;;;;;;65.03;36.85;;;230.50;2252.80;;;;;;5152697;27;20109;-61
2022/11/10 01:13:55;;;;;;;50.83;30.95;;;230.60;2252.80;;;;;;5153010;27;20043;-61
2022/11/10 01:16:27;;;;;;;38.15;24.77;;;230.60;2252.80;;;;;;5152609;27;20051;-61
2022/11/10 01:18:56;;;;;;;34.63;23.27;;;230.50;2252.80;;;;;;5152703;27;20111;-61
2022/11/10 01:21:24;;;;;;;63.65;41.00;;;230.50;2252.80;;;;;;5152374;27;20464;-61
2022/11/10 01:23:50;;;;;;;62.63;40.10;;;230.60;2252.80;;;;;;5134353;27;20029;-61
2022/11/10 01:26:16;;;;;;;47.55;29.88;;;230.50;2252.80;;;;;;5152644;27;20110;-60
2022/11/10 01:28:42;;;;;;;40.20;27.77;;;230.50;2252.80;;;;;;5152273;27;20018;-62
2022/11/10 01:31:15;;;;;;;49.35;33.78;;;230.50;2252.80;;;;;;5152306;27;20034;-60
2022/11/10 01:33:41;;;;;;;34.65;24.00;;;230.50;2252.80;;;;;;5152158;27;20060;-61
2022/11/10 01:36:08;;;;;;;26.52;17.70;;;230.50;2252.80;;;;;;5152378;27;20039;-61
2022/11/10 01:38:37;;;;;;;49.53;30.85;;;230.50;2252.80;;;;;;5151830;27;20395;-61
2022/11/10 01:41:05;;;;;;;48.65;30.17;;;230.40;2252.80;;;;;;5152252;27;20033;-61
2022/11/10 01:43:31;;;;;;;47.42;28.70;;;230.50;2252.80;;;;;;5152084;27;20464;-61
2022/11/10 01:46:04;;;;;;;42.05;28.77;;;230.50;2252.80;;;;;;5151993;27;20027;-62
2022/11/10 01:48:51;;;;;;;41.45;26.88;;;230.40;2252.80;;;;;;5151934;27;20058;-61
2022/11/10 01:51:22;;;;;;;40.97;24.38;;;230.40;2252.80;;;;;;5152425;27;20026;-61
2022/11/10 01:53:52;;;;;;;41.28;24.60;;;230.50;2252.80;;;;;;5152030;27;20030;-61
2022/11/10 01:56:19;;;;;;;35.22;23.48;;;230.40;2252.80;;;;;;5152108;27;20477;-60
2022/11/10 01:58:52;;;;;;;32.72;19.63;;;230.40;2252.80;;;;;;5152104;27;20043;-60
2022/11/10 02:01:18;;;;;;;24.35;16.60;;;205.70;2252.80;;;;;;5151940;27;20021;-60
2022/11/10 02:03:54;;;;;;;26.25;15.10;;;205.70;2252.80;;;;;;5152216;27;20480;-61
2022/11/10 02:06:24;;;;;;;22.20;12.88;;;205.70;2252.80;;;;;;5152069;27;20018;-60
2022/11/10 02:08:51;;;;;;;15.10;10.52;;;205.70;2252.80;;;;;;5151685;27;20056;-61
2022/11/10 02:11:16;;;;;;;14.23;9.35;;;205.70;2252.80;;;;;;5152133;27;20030;-61
2022/11/10 02:13:43;;;;;;;11.68;8.88;;;205.70;2252.80;;;;;;5151533;27;20023;-61
2022/11/10 02:16:09;;;;;;;14.75;8.93;;;205.60;2252.80;;;;;;5151551;27;20031;-60
2022/11/10 02:18:37;;;;;;;15.90;9.50;;;205.60;2252.80;;;;;;5151747;27;20041;-60
2022/11/10 02:21:04;;;;;;;17.88;11.77;;;205.60;2252.80;;;;;;5151708;27;20050;-61
2022/11/10 02:23:30;;;;;;;24.75;13.82;;;205.60;2252.80;;;;;;5151522;27;20139;-60
2022/11/10 02:25:57;;;;;;;19.52;14.63;;;205.60;2252.80;;;;;;5151843;27;20476;-60
2022/11/10 02:28:24;;;;;;;22.50;12.48;;;205.60;2252.80;;;;;;5151431;27;20048;-60
2022/11/10 02:30:51;;;;;;;18.13;12.35;;;205.60;2252.80;;;;;;5151623;27;20057;-61
2022/11/10 02:33:16;;;;;;;19.77;11.95;;;205.60;2252.80;;;;;;5151866;27;20019;-61
2022/11/10 02:35:43;;;;;;;23.42;13.40;;;205.60;2252.80;;;;;;5151464;27;20070;-59
2022/11/10 02:38:09;;;;;;;19.98;14.43;;;205.60;2252.80;;;;;;5151153;27;20058;-60
2022/11/10 02:40:35;;;;;;;29.73;17.75;;;205.60;2252.80;;;;;;5151788;27;20113;-61
2022/11/10 02:43:05;;;;;;;28.48;19.15;;;205.60;2252.80;;;;;;5151286;27;20511;-61
2022/11/10 02:45:31;;;;;;;23.42;15.30;;;205.60;2252.80;;;;;;5151618;27;20026;-61
2022/11/10 02:47:57;;;;;;;26.48;16.10;;;205.60;2252.80;;;;;;5132967;27;20053;-61
2022/11/10 02:50:23;;;;;;;47.28;28.50;;;205.50;2252.80;;;;;;5151328;27;20014;-62
2022/11/10 02:52:48;;;;;;;27.13;17.40;;;205.60;2252.80;;;;;;5151267;27;20030;-61
2022/11/10 02:55:14;;;;;;;18.60;12.18;;;205.50;2252.80;;;;;;5151545;27;20022;-62
2022/11/10 02:57:40;;;;;;;12.07;7.90;;;205.60;2252.80;;;;;;5151328;27;20596;-61
2022/11/10 03:00:07;;;;;;;9.07;6.45;;;205.50;2252.80;;;;;;5151284;27;20430;-63
2022/11/10 03:02:32;;;;;;;12.15;8.18;;;205.50;2252.80;;;;;;5154112;27;20015;-62
2022/11/10 03:04:58;;;;;;;14.38;8.57;;;205.50;2252.80;;;;;;5155218;27;20029;-60
2022/11/10 03:07:24;;;;;;;23.65;14.65;;;205.50;2252.80;;;;;;5155552;27;20086;-61
2022/11/10 03:09:50;;;;;;;40.80;19.92;;;205.50;2252.80;;;;;;5155030;27;20027;-62
2022/11/10 03:12:16;;;;;;;26.33;16.98;;;205.50;2252.80;;;;;;5155494;27;20071;-62
2022/11/10 03:14:42;;;;;;;17.15;12.82;;;205.50;2252.80;;;;;;5155102;27;20027;-61
2022/11/10 03:17:08;;;;;;;15.43;9.88;;;205.60;2252.80;;;;;;5155424;27;20038;-62
2022/11/10 03:19:34;;;;;;;15.18;9.40;;;205.50;2252.80;;;;;;5155214;27;20605;-62
2022/11/10 03:22:00;;;;;;;11.05;8.52;;;205.50;2252.80;;;;;;5154996;27;20027;-61
2022/11/10 03:24:26;;;;;;;19.90;11.50;;;205.50;2252.80;;;;;;5154818;27;20031;-62
2022/11/10 03:26:51;;;;;;;14.18;9.40;;;205.40;2252.80;;;;;;5154745;27;20015;-61
2022/11/10 03:29:17;;;;;;;12.27;8.48;;;205.40;2252.80;;;;;;5155079;27;20075;-61
2022/11/10 03:31:43;;;;;;;15.13;9.07;;;205.50;2252.80;;;;;;5154614;27;20034;-61
2022/11/10 03:34:08;;;;;;;15.52;10.27;;;205.50;2252.80;;;;;;5155067;27;20433;-61
2022/11/10 03:36:34;;;;;;;19.77;11.13;;;205.50;2252.80;;;;;;5154870;27;20084;-61
2022/11/10 03:39:00;;;;;;;17.08;10.90;;;205.40;2252.80;;;;;;5154169;27;20068;-62
2022/11/10 03:41:25;;;;;;;16.30;9.52;;;205.30;2252.80;;;;;;5154647;27;20091;-61
2022/11/10 03:43:51;;;;;;;14.85;8.18;;;205.30;2252.80;;;;;;5154309;27;20064;-61
2022/11/10 03:46:17;;;;;;;13.20;8.55;;;205.30;2252.80;;;;;;5154646;27;20065;-61
2022/11/10 03:48:43;;;;;;;16.30;9.55;;;205.30;2252.80;;;;;;5154680;27;20038;-61
2022/11/10 03:51:09;;;;;;;16.23;10.07;;;205.30;2252.80;;;;;;5154331;27;20031;-61
2022/11/10 03:53:35;;;;;;;15.40;9.35;;;205.30;2252.80;;;;;;5154692;27;20019;-63
2022/11/10 03:56:02;;;;;;;14.88;9.55;;;205.30;2252.80;;;;;;5154198;27;20379;-61
2022/11/10 03:58:28;;;;;;;14.90;9.55;;;205.30;2252.80;;;;;;5154202;27;20471;-61
2022/11/10 04:00:54;;;;;;;18.48;14.75;;;205.30;2252.80;;;;;;5154294;27;20106;-62
2022/11/10 04:03:20;;;;;;;16.65;10.52;;;205.30;2252.80;;;;;;5154197;27;20349;-60
2022/11/10 04:15:40;;;;;;;24.73;14.52;;;205.30;2252.80;;;;;;5154617;27;20105;-61
2022/11/10 04:16:44;;;;;;;44.55;26.40;;;205.30;2252.80;;;;;;5154364;27;20579;-62
2022/11/10 04:19:10;;;;;;;45.75;25.30;;;205.30;2252.80;;;;;;5153791;27;20026;-61
2022/11/10 04:21:36;;;;;;;42.05;25.50;;;205.30;2252.80;;;;;;5153919;27;20495;-62
2022/11/10 04:24:01;;;;;;;21.88;16.45;;;205.30;2252.80;;;;;;5153517;27;20118;-61
2022/11/10 04:26:27;;;;;;;12.85;8.52;;;205.10;2252.80;;;;;;5153781;27;20026;-61
2022/11/10 04:29:01;;;;;;;17.27;9.57;;;205.10;2252.80;;;;;;5153769;27;20041;-61
2022/11/10 04:31:29;;;;;;;21.52;11.90;;;205.10;2252.80;;;;;;5135060;27;20369;-62
2022/11/10 04:33:55;;;;;;;18.65;10.50;;;205.10;2252.80;;;;;;5153596;27;20019;-61
2022/11/10 04:36:24;;;;;;;19.33;11.55;;;205.10;2252.80;;;;;;5153477;27;20376;-60
2022/11/10 04:38:49;;;;;;;14.32;9.90;;;205.20;2252.80;;;;;;5153079;27;20481;-61
2022/11/10 04:41:16;;;;;;;15.27;8.98;;;205.20;2252.80;;;;;;5153441;27;20042;-61
2022/11/10 04:43:42;;;;;;;19.45;10.13;;;205.20;2252.80;;;;;;5153425;27;20026;-61
2022/11/10 04:46:20;;;;;;;15.80;9.13;;;205.20;2252.80;;;;;;5153558;27;20046;-61
2022/11/10 04:48:47;;;;;;;17.85;11.70;;;205.30;2252.80;;;;;;5153642;27;20387;-61
2022/11/10 04:51:13;;;;;;;24.10;14.07;;;205.30;2252.80;;;;;;5153247;27;20475;-61
2022/11/10 04:53:39;;;;;;;21.25;13.50;;;205.20;2252.80;;;;;;5153013;27;20027;-61
2022/11/10 04:56:05;;;;;;;17.75;11.25;;;205.20;2252.80;;;;;;5153322;27;20023;-62
2022/11/10 04:58:30;;;;;;;13.50;8.90;;;205.20;2252.80;;;;;;5153074;27;20055;-62
2022/11/10 05:00:56;;;;;;;11.88;8.23;;;205.10;2252.80;;;;;;5153322;27;20398;-63
2022/11/10 05:03:22;;;;;;;12.07;8.80;;;204.90;2252.80;;;;;;5153067;27;20380;-67
2022/11/10 05:05:48;;;;;;;16.45;10.55;;;205.00;2252.80;;;;;;5153365;27;20027;-60
2022/11/10 05:08:14;;;;;;;16.77;10.48;;;205.00;2252.80;;;;;;5152807;27;20019;-63
2022/11/10 05:10:40;;;;;;;17.88;11.05;;;205.10;2252.80;;;;;;5153103;27;20061;-61
2022/11/10 05:13:06;;;;;;;12.13;7.05;;;205.10;2252.80;;;;;;5152978;27;20030;-61
2022/11/10 05:15:32;;;;;;;10.60;6.57;;;205.00;2252.80;;;;;;5152515;27;20023;-61
2022/11/10 05:17:58;;;;;;;8.50;6.32;;;204.90;2252.80;;;;;;5152808;27;20030;-61
2022/11/10 05:20:24;;;;;;;9.95;6.53;;;204.90;2252.80;;;;;;5152874;27;20034;-62
2022/11/10 05:25:41;;;;;;;15.40;10.15;;;205.10;2252.80;;;;;;5152453;27;20030;-61
2022/11/10 05:28:08;;;;;;;18.95;9.73;;;205.10;2252.80;;;;;;5152754;27;20027;-62
2022/11/10 05:30:34;;;;;;;13.38;9.07;;;205.20;2252.80;;;;;;5152651;27;20036;-61
2022/11/10 05:33:01;;;;;;;19.20;8.45;;;205.20;2252.80;;;;;;5152215;27;20102;-60
2022/11/10 05:35:27;;;;;;;9.00;5.78;;;205.10;2252.80;;;;;;5152436;27;20031;-61
2022/11/10 05:37:52;;;;;;;13.68;6.10;;;205.10;2252.80;;;;;;5152180;27;20031;-60
2022/11/10 05:40:18;;;;;;;22.95;14.57;;;205.10;2252.80;;;;;;5152258;27;20058;-58
2022/11/10 05:42:46;;;;;;;30.10;21.55;;;205.20;2252.80;;;;;;5152222;27;20038;-61
2022/11/10 05:45:12;;;;;;;16.15;12.20;;;205.30;2252.80;;;;;;5152182;27;20113;-62
2022/11/10 05:47:38;;;;;;;14.73;10.50;;;205.30;2252.80;;;;;;5152164;27;20540;-61
2022/11/10 05:50:05;;;;;;;16.00;11.48;;;205.40;2252.80;;;;;;5152228;27;20539;-61
2022/11/10 05:52:30;;;;;;;9.98;7.65;;;205.40;2252.80;;;;;;5152045;27;20045;-61
2022/11/10 05:54:56;;;;;;;10.70;6.82;;;205.40;2252.80;;;;;;5152251;27;20476;-62
2022/11/10 05:57:22;;;;;;;11.05;7.75;;;205.30;2252.80;;;;;;5151841;27;20486;-62
2022/11/10 05:59:48;;;;;;;9.63;6.57;;;205.30;2252.80;;;;;;5152315;27;20098;-61
2022/11/10 06:02:13;;;;;;;10.95;7.63;;;205.30;2252.80;;;;;;5152154;27;20456;-62
2022/11/10 06:04:39;;;;;;;12.85;5.95;;;205.30;2252.80;;;;;;5151848;27;20050;-61
2022/11/10 06:07:06;;;;;;;11.02;5.65;;;205.40;2252.80;;;;;;5152270;27;20109;-61
2022/11/10 06:09:33;;;;;;;10.95;5.68;;;205.50;2252.80;;;;;;5151534;27;20026;-61
2022/11/10 06:11:59;;;;;;;9.98;5.80;;;205.60;2252.80;;;;;;5151564;27;20083;-59
2022/11/10 06:14:24;;;;;;;57.78;33.38;;;205.70;2252.80;;;;;;5152101;27;20031;-62
2022/11/10 06:16:50;;;;;;;99.25;61.17;;;230.40;2252.80;;;;;;5151753;27;20023;-61
2022/11/10 06:19:15;;;;;;;134.75;85.35;;;230.50;2252.80;;;;;;5140296;27;20138;-62
2022/11/10 06:21:41;;;;;;;67.25;46.10;;;230.60;2252.80;;;;;;5112279;28;20030;-58
2022/11/10 06:24:08;;;;;;;36.47;26.50;;;230.70;2252.80;;;;;;5148205;27;20385;-60
2022/11/10 06:26:34;;;;;;;108.07;89.78;;;230.80;2252.80;;;;;;5151756;27;20050;-61
2022/11/10 06:29:00;;;;;;;64.63;49.83;;;230.90;2252.80;;;;;;5151509;27;20460;-61
2022/11/10 06:31:25;;;;;;;20.67;16.30;;;230.90;2252.80;;;;;;5144009;27;20019;-61
2022/11/10 06:33:51;;;;;;;25.02;21.75;;;231.00;2252.80;;;;;;5140020;27;20034;-57
2022/11/10 06:36:17;;;;;;;15.43;13.45;;;231.10;2252.80;;;;;;5151057;27;20023;-61
2022/11/10 06:38:43;;;;;;;14.55;11.77;;;231.20;2252.80;;;;;;5144625;27;20031;-59
2022/11/10 06:41:09;;;;;;;15.45;9.95;;;231.20;2252.80;;;;;;5138829;27;20066;-59
2022/11/10 06:43:34;;;;;;;16.35;10.93;;;231.30;2252.80;;;;;;5141210;27;20059;-61
2022/11/10 06:46:00;;;;;;;30.40;22.65;;;256.10;2252.80;;;;;;5135143;27;20024;-62
2022/11/10 06:48:28;;;;;;;24.88;16.85;;;256.10;2252.80;;;;;;5134520;27;20030;-60
2022/11/10 06:50:54;;;;;;;24.25;17.13;;;256.20;2252.80;;;;;;5138517;27;20022;-59
2022/11/10 06:53:20;;;;;;;21.25;13.82;;;256.20;2252.80;;;;;;5144802;27;20026;-59
2022/11/10 06:55:45;;;;;;;25.73;16.05;;;256.30;2252.80;;;;;;5143069;27;20414;-61
2022/11/10 06:58:11;;;;;;;38.67;26.35;;;256.30;2252.80;;;;;;5143414;27;20027;-62
2022/11/10 07:00:37;;;;;;;23.10;15.93;;;256.30;2252.80;;;;;;5144864;27;20052;-59
2022/11/10 07:03:09;;;;;;;17.63;14.00;;;256.40;2252.80;;;;;;5142511;27;20019;-63
2022/11/10 07:05:35;;;;;;;15.93;12.10;;;256.50;2252.80;;;;;;5143146;27;20022;-61
2022/11/10 07:08:03;;;;;;;26.98;13.02;;;256.50;2252.80;;;;;;5134229;27;20035;-58
2022/11/10 07:10:28;;;;;;;17.83;12.80;;;256.60;2252.80;;;;;;5134576;27;20477;-60
2022/11/10 07:12:58;;;;;;;25.25;19.00;;;256.50;2252.80;;;;;;5134501;27;20015;-61
2022/11/10 07:15:24;;;;;;;15.25;10.88;;;256.50;2252.80;;;;;;5134443;27;20380;-60
2022/11/10 07:17:50;;;;;;;14.43;10.02;;;256.70;2252.80;;;;;;5134351;27;20019;-60
2022/11/10 07:20:16;;;;;;;13.63;9.40;;;256.80;2252.80;;;;;;5134466;27;20039;-60
2022/11/10 07:22:41;;;;;;;14.15;9.52;;;256.80;2252.80;;;;;;5137637;27;20015;-61
2022/11/10 07:25:08;;;;;;;11.85;8.52;;;256.90;2252.80;;;;;;5134228;27;20058;-61
2022/11/10 07:27:33;;;;;;;9.80;7.45;;;281.70;2278.40;;;;;;5134043;27;20073;-61
2022/11/10 07:29:59;;;;;;;9.65;6.53;;;281.90;2278.40;;;;;;5133929;27;20496;-61
2022/11/10 07:32:24;;;;;;;10.88;8.50;;;282.20;2278.40;;;;;;5134117;27;20094;-56
2022/11/10 07:34:50;;;;;;;11.77;9.10;;;307.70;2304.00;;;;;;5134117;27;20098;-61
2022/11/10 07:37:16;;;;;;;11.20;7.60;;;333.70;2329.60;;;;;;5134038;27;20023;-57
2022/11/10 07:39:42;;;;;;;11.48;7.95;;;384.10;2329.60;;;;;;5133386;27;20035;-58
2022/11/10 07:42:07;;;;;;;8.38;6.70;;;410.20;2355.20;;;;;;5133083;27;20058;-61
2022/11/10 07:44:33;;;;;;;8.75;7.55;;;461.40;2227.20;;;;;;5132718;28;20023;-59
2022/11/10 07:46:59;;;;;;;8.82;7.90;;;512.80;1945.60;;;;;;5132412;27;20369;-58
2022/11/10 07:49:24;;;;;;;8.57;7.68;;;563.40;1843.20;;;;;;5132729;28;20023;-58
2022/11/10 07:51:50;;;;;;;9.02;8.00;;;588.90;1740.80;;;;;;5132645;28;20447;-61
2022/11/10 07:54:16;;;;;;;9.75;8.73;;;614.60;1664.00;;;;;;5132769;28;20102;-57
2022/11/10 07:56:42;;;;;;;10.90;9.30;;;615.20;1587.20;;;;;;5132322;28;20423;-57
2022/11/10 07:59:08;;;;;;;11.82;9.93;;;640.00;1561.60;;;;;;5132429;28;20074;-58
2022/11/10 08:01:34;;;;;;;23.40;21.27;;;640.50;1536.00;;;;;;5132515;28;20042;-61
2022/11/10 08:03:59;;;;;;;17.55;16.00;;;666.30;1484.80;;;;;;5132269;28;20050;-61
2022/11/10 08:06:25;;;;;;;17.35;15.70;;;691.50;1408.00;;;;;;5132226;28;20019;-60
2022/11/10 08:08:51;;;;;;;16.40;14.77;;;691.40;1408.00;;;;;;5132144;28;20035;-57
2022/11/10 08:11:16;;;;;;;18.15;16.25;;;692.10;1356.80;;;;;;5133556;27;20065;-56
2022/11/10 08:13:42;;;;;;;37.65;33.97;;;691.70;1382.40;;;;;;5148059;27;20027;-56
2022/11/10 08:16:08;;;;;;;22.25;20.15;;;717.20;1382.40;;;;;;5148666;27;20146;-56
2022/11/10 08:18:34;;;;;;;18.70;16.75;;;717.70;1356.80;;;;;;5148360;27;20038;-56
2022/11/10 08:21:01;;;;;;;19.30;17.50;;;742.50;1382.40;;;;;;5147829;27;20106;-57
2022/11/10 08:23:27;;;;;;;47.00;42.88;;;743.10;1305.60;;;;;;5148461;27;20040;-56
2022/11/10 08:25:53;;;;;;;18.30;15.32;;;743.10;1305.60;;;;;;5148040;27;20079;-56
2022/11/10 08:28:19;;;;;;;23.60;21.30;;;743.30;1280.00;;;;;;5148084;27;20097;-57
2022/11/10 08:30:47;;;;;;;35.05;31.85;;;768.40;1280.00;;;;;;5148392;27;20026;-60
2022/11/10 08:33:15;;;;;;;22.83;20.58;;;768.50;1280.00;;;;;;5148122;27;20097;-60
2022/11/10 08:35:44;;;;;;;17.88;15.05;;;768.90;1280.00;;;;;;5131042;27;20120;-62
2022/11/10 08:38:15;;;;;;;13.38;11.98;;;793.70;1305.60;;;;;;5110575;28;20035;-60
2022/11/10 08:40:42;;;;;;;12.65;11.43;;;793.60;1254.40;;;;;;5131296;27;20114;-57
2022/11/10 08:43:08;;;;;;;12.10;10.65;;;768.50;1254.40;;;;;;5090644;27;1215434;-57
2022/11/10 08:45:36;;;;;;;12.07;10.27;;;768.40;1280.00;;;;;;5134977;27;20387;-67
2022/11/10 08:48:07;;;;;;;10.25;9.27;;;743.20;1305.60;;;;;;5144293;27;20023;-60
2022/11/10 08:50:33;;;;;;;17.77;10.05;;;743.30;1280.00;;;;;;5147198;27;20023;-64
2022/11/10 08:53:05;;;;;;;11.32;9.38;;;743.30;1280.00;;;;;;5147267;27;20018;-64
2022/11/10 08:55:31;;;;;;;9.82;8.70;;;743.20;1280.00;;;;;;5143510;27;20475;-61
2022/11/10 08:58:01;;;;;;;9.93;9.02;;;768.90;1254.40;;;;;;5149265;27;20043;-61
2022/11/10 09:00:28;;;;;;;20.27;18.23;;;794.20;1254.40;;;;;;5148118;27;20094;-61
2022/11/10 09:02:55;;;;;;;26.88;23.95;;;768.70;1254.40;;;;;;5149132;27;20018;-62
2022/11/10 09:05:22;;;;;;;32.00;28.52;;;743.00;1305.60;;;;;;5148953;27;20022;-62
2022/11/10 09:07:49;;;;;;;26.27;23.08;;;717.40;1331.20;;;;;;5148902;27;20015;-59
2022/11/10 09:10:15;;;;;;;45.88;40.65;;;691.80;1382.40;;;;;;5148844;27;20392;-62
2022/11/10 09:12:42;;;;;;;35.00;31.20;;;666.20;1433.60;;;;;;5148678;27;20033;-60
2022/11/10 09:15:09;;;;;;;24.17;21.67;;;666.20;1408.00;;;;;;5148707;27;20022;-60
2022/11/10 09:17:36;;;;;;;26.88;24.05;;;640.60;1433.60;;;;;;5148837;27;20023;-60
2022/11/10 09:20:03;;;;;;;28.80;25.75;;;615.10;1510.40;;;;;;5148530;27;20484;-61
2022/11/10 09:22:29;;;;;;;23.23;19.88;;;614.50;1536.00;;;;;;5130815;27;20072;-61
2022/11/10 09:24:55;;;;;;;30.05;25.67;;;588.80;1561.60;;;;;;5130749;27;20023;-60
2022/11/10 09:27:20;;;;;;;39.40;33.35;;;563.60;1638.40;;;;;;5130862;27;20038;-62
2022/11/10 09:29:46;;;;;;;37.95;28.42;;;563.20;1689.60;;;;;;5130813;27;20409;-61
2022/11/10 09:32:12;;;;;;;46.22;35.88;;;538.20;1715.20;;;;;;5130478;27;20069;-60
2022/11/10 09:34:38;;;;;;;57.22;41.53;;;538.40;1689.60;;;;;;5135223;27;20448;-61
2022/11/10 09:37:03;;;;;;;38.63;31.08;;;538.30;1715.20;;;;;;5150848;27;20027;-60
2022/11/10 09:39:29;;;;;;;35.70;27.92;;;537.70;1740.80;;;;;;5151989;27;20038;-62
2022/11/10 09:41:55;;;;;;;30.35;26.45;;;538.00;1715.20;;;;;;5152239;27;20043;-62
2022/11/10 09:44:24;;;;;;;30.55;25.63;;;537.60;1740.80;;;;;;5152324;27;20471;-62
2022/11/10 09:47:15;;;;;;;27.23;24.33;;;538.00;1715.20;;;;;;5152286;27;20019;-61
2022/11/10 09:49:51;;;;;;;23.73;19.67;;;563.40;1664.00;;;;;;5058882;28;20040;-61
2022/11/10 09:52:20;;;;;;;24.58;20.90;;;563.30;1664.00;;;;;;5048482;28;20107;-61
2022/11/10 09:54:56;;;;;;;24.35;20.67;;;564.00;1638.40;;;;;;5048273;28;20104;-62
2022/11/10 09:57:24;;;;;;;23.20;19.30;;;563.90;1638.40;;;;;;5048293;28;20140;-62
2022/11/10 09:59:51;;;;;;;22.77;17.95;;;563.90;1612.80;;;;;;5047820;28;20040;-62
2022/11/10 10:02:40;;;;;;;29.70;26.75;;;564.10;1612.80;;;;;;5048349;28;20056;-61
2022/11/10 10:05:27;;;;;;;19.55;17.00;;;564.10;1612.80;;;;;;5048054;28;20036;-61
2022/11/10 10:08:07;;;;;;;20.35;16.17;;;588.80;1612.80;;;;;;5047613;28;20060;-61
2022/11/10 10:11:07;;;;;;;16.65;14.23;;;563.30;1664.00;;;;;;5047618;28;20037;-61
2022/11/10 10:13:56;;;;;;;23.42;18.80;;;512.90;1689.60;;;;;;5047940;28;20029;-60
2022/11/10 10:16:32;;;;;;;16.65;14.40;;;512.80;1715.20;;;;;;5047773;28;20070;-61
2022/11/10 10:19:23;;;;;;;16.45;14.55;;;512.20;1766.40;;;;;;5047961;28;20044;-61
2022/11/10 10:22:19;;;;;;;28.67;20.15;;;512.10;1766.40;;;;;;5048111;28;20502;-61
2022/11/10 10:24:47;;;;;;;27.95;21.13;;;512.10;1792.00;;;;;;5047924;28;20025;-60
2022/11/10 10:27:21;;;;;;;26.50;18.50;;;487.20;1817.60;;;;;;5106825;28;20047;-61
2022/11/10 10:29:51;;;;;;;19.90;14.45;;;512.00;1792.00;;;;;;5131235;28;20022;-60
2022/11/10 10:32:17;;;;;;;25.38;17.95;;;487.00;1843.20;;;;;;5131128;28;20031;-61
2022/11/10 10:34:44;;;;;;;21.60;15.48;;;487.10;1817.60;;;;;;5130850;28;20353;-61
2022/11/10 10:37:30;;;;;;;21.13;14.35;;;487.00;1843.20;;;;;;5130764;28;20027;-61
2022/11/10 10:39:56;;;;;;;21.27;14.35;;;486.90;1868.80;;;;;;5130693;28;20027;-61
2022/11/10 10:42:33;;;;;;;17.80;14.90;;;487.00;1843.20;;;;;;5130570;28;20124;-61
2022/11/10 10:45:12;;;;;;;21.98;18.30;;;487.10;1843.20;;;;;;5130889;28;20027;-61
2022/11/10 10:47:38;;;;;;;21.75;15.98;;;487.10;1843.20;;;;;;5130920;28;20034;-61
2022/11/10 10:50:22;;;;;;;32.75;21.05;;;512.00;1843.20;;;;;;5131062;28;20135;-61
2022/11/10 10:53:07;;;;;;;28.77;20.02;;;487.20;1843.20;;;;;;5130932;28;20015;-61
2022/11/10 10:55:35;;;;;;;20.05;12.60;;;487.20;1843.20;;;;;;5130576;28;20055;-61
2022/11/10 10:58:17;;;;;;;14.60;10.30;;;487.00;1868.80;;;;;;5130686;28;20022;-61
2022/11/10 11:00:44;;;;;;;18.50;14.30;;;487.00;1843.20;;;;;;5130503;28;20135;-61
2022/11/10 11:03:41;;;;;;;23.05;15.13;;;486.90;1868.80;;;;;;5130529;28;20029;-61
2022/11/10 11:06:17;;;;;;;16.63;13.02;;;487.00;1868.80;;;;;;5130804;28;20035;-61
2022/11/10 11:09:25;;;;;;;22.98;16.35;;;487.20;1843.20;;;;;;5130347;28;20468;-61
2022/11/10 11:12:03;;;;;;;16.77;13.73;;;487.10;1843.20;;;;;;5027297;28;20034;-61
2022/11/10 11:14:30;;;;;;;17.17;12.77;;;487.30;1843.20;;;;;;5027291;28;20025;-61
2022/11/10 11:17:00;;;;;;;16.35;11.43;;;487.20;1868.80;;;;;;5027391;28;20034;-61
2022/11/10 11:19:32;;;;;;;16.70;12.82;;;487.20;1868.80;;;;;;5027337;28;20403;-61
2022/11/10 11:22:26;;;;;;;16.15;10.90;;;487.30;1868.80;;;;;;5027482;28;20391;-61
2022/11/10 11:25:26;;;;;;;17.42;12.50;;;512.00;1843.20;;;;;;5030781;28;20029;-61
2022/11/10 11:28:15;;;;;;;20.23;12.95;;;487.30;1868.80;;;;;;5030826;28;20112;-61
2022/11/10 11:30:55;;;;;;;12.50;8.60;;;512.00;1868.80;;;;;;4991396;28;20046;-62
2022/11/10 11:33:31;;;;;;;12.02;6.93;;;487.30;1843.20;;;;;;4991452;28;20532;-61
2022/11/10 11:36:06;;;;;;;11.20;7.95;;;487.30;1843.20;;;;;;4991214;28;20110;-60
2022/11/10 11:38:43;;;;;;;13.15;9.10;;;487.30;1843.20;;;;;;4990875;28;20489;-59
2022/11/10 11:41:15;;;;;;;10.63;8.23;;;487.30;1843.20;;;;;;4991045;28;20110;-60
2022/11/10 11:44:04;;;;;;;18.65;13.25;;;487.30;1843.20;;;;;;5068882;28;20054;-59
2022/11/10 11:46:46;;;;;;;27.30;21.50;;;487.30;1843.20;;;;;;5070390;28;20475;-59
2022/11/10 11:49:26;;;;;;;21.02;14.98;;;512.10;1843.20;;;;;;5070401;28;20036;-60
2022/11/10 11:51:56;;;;;;;14.30;11.05;;;512.10;1817.60;;;;;;5070285;28;20108;-60
2022/11/10 11:54:56;;;;;;;26.98;17.05;;;512.00;1817.60;;;;;;5070354;28;20087;-59
2022/11/10 11:57:44;;;;;;;15.05;11.10;;;512.00;1843.20;;;;;;5070251;28;20025;-60
2022/11/10 12:00:15;;;;;;;8.80;7.28;;;487.10;1843.20;;;;;;5070110;28;20032;-60
2022/11/10 12:03:10;;;;;;;14.35;9.38;;;487.00;1868.80;;;;;;5070019;28;20028;-59
2022/11/10 12:05:57;;;;;;;15.65;11.38;;;487.10;1894.40;;;;;;5070179;28;20023;-57
2022/11/10 12:08:57;;;;;;;33.97;22.17;;;487.20;1894.40;;;;;;5119843;27;20039;-59
2022/11/10 12:11:41;;;;;;;26.98;13.90;;;512.00;1894.40;;;;;;5133267;27;20468;-59
2022/11/10 12:14:29;;;;;;;18.13;11.02;;;512.00;1920.00;;;;;;5133695;27;20031;-60
2022/11/10 12:17:15;;;;;;;26.15;16.23;;;487.30;1945.60;;;;;;5133293;27;20027;-60
2022/11/10 12:20:02;;;;;;;20.52;14.25;;;487.20;1920.00;;;;;;5133081;27;20035;-59
2022/11/10 12:22:45;;;;;;;15.27;11.05;;;487.30;1945.60;;;;;;5133325;27;20463;-60
2022/11/10 12:25:48;;;;;;;24.80;12.93;;;487.30;1945.60;;;;;;5132855;27;20031;-60